createdAt,value
2023-05-24T00:00:33.048Z,9.77
2023-05-24T00:03:00.819Z,9.60
2023-05-24T00:05:31.294Z,9.90
2023-05-24T00:07:59.872Z,9.52
2023-05-24T00:10:27.504Z,9.43
2023-05-24T00:12:55.137Z,9.02
2023-05-24T00:15:22.678Z,9.23
2023-05-24T00:17:50.232Z,9.82
2023-05-24T00:20:20.909Z,9.30
2023-05-24T00:22:48.661Z,9.65
2023-05-24T00:25:16.349Z,9.20
2023-05-24T00:27:43.838Z,9.93
2023-05-24T00:30:11.702Z,10.00
2023-05-24T00:32:39.335Z,10.43
2023-05-24T00:35:07.239Z,10.18
2023-05-24T00:37:34.812Z,10.30
2023-05-24T00:40:02.350Z,11.23
2023-05-24T00:42:29.809Z,10.68
2023-05-24T00:44:57.313Z,10.55
2023-05-24T00:47:24.952Z,10.60
2023-05-24T00:49:52.576Z,10.95
2023-05-24T00:52:20.252Z,10.70
2023-05-24T00:54:54.075Z,11.13
2023-05-24T00:57:21.687Z,11.65
2023-05-24T00:59:49.510Z,11.13
2023-05-24T01:02:18.605Z,10.75
2023-05-24T01:04:49.122Z,11.30
2023-05-24T01:07:28.114Z,11.43
2023-05-24T01:10:04.331Z,12.05
2023-05-24T01:12:50.186Z,11.80
2023-05-24T01:15:51.395Z,13.07
2023-05-24T01:18:47.045Z,12.70
2023-05-24T01:21:38.737Z,13.73
2023-05-24T01:24:53.964Z,12.00
2023-05-24T01:27:23.075Z,13.25
2023-05-24T01:29:53.652Z,14.77
2023-05-24T01:32:21.608Z,15.38
2023-05-24T01:34:49.234Z,14.57
2023-05-24T01:37:17.193Z,15.45
2023-05-24T01:39:44.922Z,15.98
2023-05-24T01:42:26.485Z,15.02
2023-05-24T01:45:12.777Z,14.43
2023-05-24T01:48:07.272Z,14.50
2023-05-24T01:50:46.587Z,15.00
2023-05-24T01:53:19.552Z,14.73
2023-05-24T01:55:49.904Z,15.07
2023-05-24T01:58:21.125Z,15.68
2023-05-24T02:00:49.726Z,15.35
2023-05-24T02:03:17.399Z,16.02
2023-05-24T02:05:46.273Z,16.90
2023-05-24T02:08:13.996Z,16.25
2023-05-24T02:10:41.689Z,17.63
2023-05-24T02:13:09.492Z,17.30
2023-05-24T02:15:37.254Z,17.35
2023-05-24T02:18:08.255Z,16.67
2023-05-24T02:20:38.750Z,19.15
2023-05-24T02:23:06.894Z,19.63
2023-05-24T02:25:34.484Z,18.45
2023-05-24T02:28:02.109Z,19.80
2023-05-24T02:30:29.641Z,19.48
2023-05-24T02:32:57.518Z,19.58
2023-05-24T02:35:25.141Z,19.85
2023-05-24T02:37:52.640Z,18.17
2023-05-24T02:40:20.230Z,19.80
2023-05-24T02:42:48.486Z,20.92
2023-05-24T02:45:16.012Z,19.90
2023-05-24T02:47:43.564Z,21.20
2023-05-24T02:50:11.147Z,21.13
2023-05-24T02:52:38.618Z,21.67
2023-05-24T02:55:06.805Z,21.42
2023-05-24T02:57:35.254Z,22.58
2023-05-24T03:00:02.901Z,22.23
2023-05-24T03:02:34.131Z,22.33
2023-05-24T03:05:01.913Z,23.10
2023-05-24T03:07:30.516Z,22.23
2023-05-24T03:09:58.036Z,21.77
2023-05-24T03:12:25.497Z,24.15
2023-05-24T03:14:52.933Z,24.65
2023-05-24T03:17:20.572Z,24.23
2023-05-24T03:19:48.115Z,24.65
2023-05-24T03:22:15.656Z,25.17
2023-05-24T03:24:43.171Z,24.58
2023-05-24T03:27:12.720Z,23.52
2023-05-24T03:29:40.212Z,25.30
2023-05-24T03:32:08.109Z,25.83
2023-05-24T03:34:35.869Z,24.70
2023-05-24T03:37:03.652Z,25.90
2023-05-24T03:39:31.413Z,25.55
2023-05-24T03:42:12.067Z,24.50
2023-05-24T03:44:40.253Z,29.02
2023-05-24T03:47:07.795Z,28.70
2023-05-24T03:49:35.412Z,27.42
2023-05-24T03:52:03.450Z,25.48
2023-05-24T03:54:31.278Z,25.48
2023-05-24T03:56:58.989Z,24.77
2023-05-24T03:59:27.124Z,24.17
2023-05-24T04:01:55.452Z,25.30
2023-05-24T04:04:23.163Z,25.20
2023-05-24T04:06:53.978Z,26.30
2023-05-24T04:09:23.882Z,25.25
2023-05-24T04:11:51.813Z,25.75
2023-05-24T04:14:19.339Z,25.77
2023-05-24T04:16:46.929Z,25.25
2023-05-24T04:19:14.451Z,23.48
2023-05-24T04:21:42.041Z,24.50
2023-05-24T04:24:09.569Z,23.40
2023-05-24T04:26:37.879Z,22.08
2023-05-24T04:29:05.504Z,22.95
2023-05-24T04:31:34.444Z,23.40
2023-05-24T04:34:02.923Z,23.15
2023-05-24T04:36:34.083Z,23.38
2023-05-24T04:39:04.965Z,24.35
2023-05-24T04:41:32.535Z,22.02
2023-05-24T04:44:00.157Z,23.83
2023-05-24T04:46:28.439Z,23.02
2023-05-24T04:48:55.989Z,22.55
2023-05-24T04:51:24.477Z,20.55
2023-05-24T04:53:51.966Z,20.35
2023-05-24T04:56:19.659Z,19.45
2023-05-24T04:58:48.032Z,18.35
2023-05-24T05:01:15.901Z,18.10
2023-05-24T05:03:46.011Z,17.15
2023-05-24T05:06:13.807Z,17.00
2023-05-24T05:08:41.324Z,17.98
2023-05-24T05:11:08.824Z,16.30
2023-05-24T05:13:36.313Z,16.50
2023-05-24T05:16:03.854Z,15.75
2023-05-24T05:18:31.445Z,16.45
2023-05-24T05:20:58.868Z,16.40
2023-05-24T05:23:26.294Z,15.93
2023-05-24T05:25:53.820Z,15.65
2023-05-24T05:28:21.750Z,15.70
2023-05-24T05:30:49.096Z,16.65
2023-05-24T05:33:16.691Z,16.23
2023-05-24T05:35:44.204Z,15.50
2023-05-24T05:38:11.718Z,16.67
2023-05-24T05:40:39.230Z,15.05
2023-05-24T05:43:08.539Z,15.40
2023-05-24T05:45:36.025Z,15.55
2023-05-24T05:48:03.699Z,12.88
2023-05-24T05:50:31.275Z,13.23
2023-05-24T05:52:58.800Z,12.80
2023-05-24T05:55:26.423Z,13.88
2023-05-24T05:57:54.354Z,13.88
2023-05-24T06:00:23.462Z,13.60
2023-05-24T06:02:51.118Z,13.65
2023-05-24T06:05:19.465Z,13.10
2023-05-24T06:07:47.599Z,13.02
2023-05-24T06:10:15.136Z,13.52
2023-05-24T06:12:42.803Z,12.82
2023-05-24T06:15:10.492Z,13.20
2023-05-24T06:17:38.189Z,12.35
2023-05-24T06:20:15.593Z,13.35
2023-05-24T06:22:43.823Z,13.48
2023-05-24T06:25:14.862Z,13.43
2023-05-24T06:27:42.434Z,14.65
2023-05-24T06:30:10.403Z,13.65
2023-05-24T06:32:38.070Z,14.73
2023-05-24T06:35:06.090Z,14.45
2023-05-24T06:37:33.643Z,15.25
2023-05-24T06:40:01.335Z,14.13
2023-05-24T06:42:28.960Z,14.82
2023-05-24T06:44:56.591Z,14.23
2023-05-24T06:47:24.349Z,14.18
2023-05-24T06:49:51.997Z,13.90
2023-05-24T06:52:19.668Z,14.45
2023-05-24T06:54:47.213Z,15.27
2023-05-24T06:57:14.633Z,14.73
2023-05-24T06:59:42.235Z,14.18
2023-05-24T07:02:09.817Z,15.80
2023-05-24T07:04:37.376Z,15.07
2023-05-24T07:07:04.885Z,14.77
2023-05-24T07:09:32.563Z,14.63
2023-05-24T07:12:00.485Z,15.82
2023-05-24T07:14:28.241Z,16.30
2023-05-24T07:16:57.608Z,15.65
2023-05-24T07:19:29.279Z,17.38
2023-05-24T07:24:24.909Z,15.75
2023-05-24T07:26:53.789Z,16.17
2023-05-24T07:29:21.923Z,15.43
2023-05-24T07:31:49.577Z,16.80
2023-05-24T07:34:17.124Z,16.13
2023-05-24T07:36:45.647Z,16.33
2023-05-24T07:39:15.891Z,16.55
2023-05-24T07:41:43.441Z,17.55
2023-05-24T07:44:12.221Z,16.77
2023-05-24T07:46:39.812Z,14.85
2023-05-24T07:49:07.312Z,15.25
2023-05-24T07:51:34.790Z,14.35
2023-05-24T07:54:02.284Z,11.95
2023-05-24T07:56:30.262Z,13.60
2023-05-24T07:59:03.716Z,11.85
2023-05-24T08:01:32.357Z,11.43
2023-05-24T08:04:00.231Z,10.88
2023-05-24T08:06:27.903Z,10.18
2023-05-24T08:08:55.375Z,11.05
2023-05-24T08:11:23.156Z,12.18
2023-05-24T08:13:50.665Z,12.45
2023-05-24T08:16:18.920Z,13.70
2023-05-24T08:18:46.599Z,11.40
2023-05-24T08:21:14.134Z,10.90
2023-05-24T08:23:41.670Z,14.60
2023-05-24T08:26:09.322Z,10.07
2023-05-24T08:28:36.775Z,9.10
2023-05-24T08:31:04.544Z,8.63
2023-05-24T08:33:32.796Z,7.68
2023-05-24T08:36:00.311Z,8.20
2023-05-24T08:38:28.894Z,7.38
2023-05-24T08:40:56.886Z,7.78
2023-05-24T08:43:26.812Z,7.93
2023-05-24T08:45:58.046Z,8.02
2023-05-24T08:48:27.065Z,7.27
2023-05-24T08:50:55.589Z,8.18
2023-05-24T08:53:23.848Z,8.40
2023-05-24T08:55:55.924Z,7.72
2023-05-24T09:00:51.081Z,7.90
2023-05-24T09:03:19.449Z,8.13
2023-05-24T09:05:47.375Z,7.47
2023-05-24T09:08:18.197Z,7.95
2023-05-24T09:10:54.972Z,7.90
2023-05-24T09:13:25.177Z,8.13
2023-05-24T09:15:53.697Z,9.25
2023-05-24T09:18:21.456Z,9.40
2023-05-24T09:20:49.113Z,8.75
2023-05-24T09:23:17.735Z,9.70
2023-05-24T09:25:46.694Z,8.57
2023-05-24T09:28:18.739Z,8.60
2023-05-24T09:30:57.714Z,8.77
2023-05-24T09:33:35.247Z,8.95
2023-05-24T09:36:05.054Z,8.43
2023-05-24T09:38:33.173Z,9.20
2023-05-24T09:41:06.830Z,9.38
2023-05-24T09:43:36.467Z,10.40
2023-05-24T09:46:04.881Z,9.13
2023-05-24T09:48:32.504Z,9.23
2023-05-24T09:51:05.977Z,9.68
2023-05-24T09:53:35.187Z,10.10
2023-05-24T09:56:10.242Z,10.85
2023-05-24T09:58:37.797Z,9.82
2023-05-24T10:01:12.389Z,9.70
2023-05-24T10:03:52.405Z,9.70
2023-05-24T10:06:21.032Z,10.02
2023-05-24T10:08:49.401Z,9.77
2023-05-24T10:11:17.091Z,9.60
2023-05-24T10:13:44.995Z,10.38
2023-05-24T10:16:12.979Z,9.90
2023-05-24T10:18:41.227Z,9.60
2023-05-24T10:21:10.763Z,9.73
2023-05-24T10:23:39.422Z,9.90
2023-05-24T10:26:08.424Z,9.00
2023-05-24T10:28:43.219Z,9.25
2023-05-24T10:31:13.057Z,8.85
2023-05-24T10:33:44.445Z,9.38
2023-05-24T10:36:14.262Z,8.67
2023-05-24T10:38:42.575Z,9.60
2023-05-24T10:41:13.049Z,8.95
2023-05-24T10:43:53.406Z,9.32
2023-05-24T10:46:29.156Z,9.05
2023-05-24T10:49:01.216Z,9.23
2023-05-24T10:51:35.529Z,8.20
2023-05-24T10:54:13.185Z,9.25
2023-05-24T10:56:43.320Z,9.55
2023-05-24T10:59:45.407Z,8.30
2023-05-24T11:02:14.833Z,7.30
2023-05-24T11:04:46.364Z,7.68
2023-05-24T11:07:15.683Z,8.95
2023-05-24T11:09:46.808Z,8.63
2023-05-24T11:12:17.873Z,8.57
2023-05-24T11:14:52.782Z,7.05
2023-05-24T11:17:24.147Z,9.00
2023-05-24T11:19:55.767Z,8.87
2023-05-24T11:22:26.748Z,7.80
2023-05-24T11:24:54.465Z,8.27
2023-05-24T11:27:22.234Z,9.73
2023-05-24T11:29:49.988Z,8.88
2023-05-24T11:32:19.932Z,8.45
2023-05-24T11:34:48.577Z,7.78
2023-05-24T11:37:17.975Z,7.85
2023-05-24T11:39:52.335Z,8.07
2023-05-24T11:42:22.719Z,7.90
2023-05-24T11:44:50.574Z,7.55
2023-05-24T11:47:20.974Z,8.73
2023-05-24T11:49:54.398Z,7.93
2023-05-24T11:52:22.246Z,7.57
2023-05-24T11:54:50.583Z,8.23
2023-05-24T11:57:22.160Z,8.38
2023-05-24T11:59:49.906Z,8.50
2023-05-24T12:02:18.099Z,8.75
2023-05-24T12:04:46.893Z,9.48
2023-05-24T12:07:16.557Z,9.18
2023-05-24T12:09:44.076Z,9.07
2023-05-24T12:12:11.647Z,8.43
2023-05-24T12:14:39.746Z,8.40
2023-05-24T12:17:17.167Z,7.88
2023-05-24T12:19:44.988Z,7.45
2023-05-24T12:22:12.492Z,7.00
2023-05-24T12:24:40.058Z,6.30
2023-05-24T12:27:08.398Z,6.30
2023-05-24T12:29:38.879Z,7.50
2023-05-24T12:32:12.345Z,6.47
2023-05-24T12:34:44.697Z,6.00
2023-05-24T12:39:43.633Z,5.97
2023-05-24T12:42:15.208Z,6.35
2023-05-24T12:44:43.049Z,5.53
2023-05-24T12:47:10.929Z,5.95
2023-05-24T12:49:38.703Z,6.05
2023-05-24T12:52:06.759Z,5.88
2023-05-24T12:54:34.601Z,6.50
2023-05-24T12:57:05.225Z,6.30
2023-05-24T12:59:33.728Z,6.32
2023-05-24T13:02:01.901Z,5.97
2023-05-24T13:04:31.836Z,7.07
2023-05-24T13:07:00.422Z,6.82
2023-05-24T13:09:28.036Z,6.47
2023-05-24T13:11:55.738Z,6.43
2023-05-24T13:14:23.501Z,6.57
2023-05-24T13:16:51.202Z,6.18
2023-05-24T13:19:19.117Z,6.68
2023-05-24T13:21:46.687Z,6.63
2023-05-24T13:24:16.584Z,6.55
2023-05-24T13:26:45.096Z,6.88
2023-05-24T13:31:43.730Z,6.85
2023-05-24T13:34:11.586Z,6.63
2023-05-24T13:36:39.553Z,7.82
2023-05-24T13:41:41.414Z,5.95
2023-05-24T13:44:10.191Z,6.20
2023-05-24T13:46:38.556Z,5.80
2023-05-24T13:49:07.221Z,6.38
2023-05-24T13:51:35.110Z,6.32
2023-05-24T13:54:03.313Z,5.93
2023-05-24T13:56:34.348Z,6.65
2023-05-24T13:59:03.739Z,5.95
2023-05-24T14:01:32.011Z,5.88
2023-05-24T14:04:02.555Z,7.15
2023-05-24T14:06:30.514Z,6.60
2023-05-24T14:08:58.413Z,5.90
2023-05-24T14:11:26.781Z,6.30
2023-05-24T14:16:25.350Z,6.22
2023-05-24T14:18:52.954Z,6.70
2023-05-24T14:21:25.860Z,6.20
2023-05-24T14:23:53.421Z,6.35
2023-05-24T14:26:23.823Z,6.35
2023-05-24T14:28:54.362Z,6.38
2023-05-24T14:31:24.177Z,5.88
2023-05-24T14:33:51.692Z,7.30
2023-05-24T14:36:19.549Z,6.07
2023-05-24T14:38:47.111Z,6.72
2023-05-24T14:41:15.577Z,6.63
2023-05-24T14:43:43.041Z,6.20
2023-05-24T14:46:10.706Z,7.20
2023-05-24T14:48:41.453Z,6.57
2023-05-24T14:51:09.289Z,7.50
2023-05-24T14:53:36.909Z,5.88
2023-05-24T14:56:06.360Z,6.47
2023-05-24T14:58:34.015Z,5.75
2023-05-24T15:01:02.034Z,5.68
2023-05-24T15:03:29.692Z,6.13
2023-05-24T15:05:57.599Z,6.00
2023-05-24T15:08:25.298Z,6.30
2023-05-24T15:10:52.862Z,5.78
2023-05-24T15:13:20.458Z,5.78
2023-05-24T15:15:48.523Z,5.57
2023-05-24T15:18:16.260Z,5.45
2023-05-24T15:20:44.090Z,5.57
2023-05-24T15:23:12.017Z,5.72
2023-05-24T15:25:39.539Z,6.00
2023-05-24T15:28:07.334Z,6.10
2023-05-24T15:30:35.172Z,5.57
2023-05-24T15:33:02.925Z,6.57
2023-05-24T15:35:30.753Z,6.13
2023-05-24T15:37:58.340Z,5.35
2023-05-24T15:40:26.224Z,6.13
2023-05-24T15:42:53.804Z,7.30
2023-05-24T15:45:21.458Z,5.97
2023-05-24T15:47:49.272Z,5.32
2023-05-24T15:50:16.918Z,7.00
2023-05-24T15:52:44.433Z,6.07
2023-05-24T15:55:11.997Z,6.20
2023-05-24T15:57:39.468Z,5.38
2023-05-24T16:00:07.565Z,5.43
2023-05-24T16:02:39.558Z,8.20
2023-05-24T16:05:07.895Z,5.72
2023-05-24T16:07:35.637Z,5.40
2023-05-24T16:10:03.420Z,5.72
2023-05-24T16:12:31.080Z,6.05
2023-05-24T16:15:00.303Z,5.63
2023-05-24T16:17:27.981Z,6.07
2023-05-24T16:19:55.717Z,5.63
2023-05-24T16:22:24.091Z,5.93
2023-05-24T16:24:51.690Z,6.55
2023-05-24T16:27:19.326Z,5.57
2023-05-24T16:29:47.089Z,6.05
2023-05-24T16:32:14.691Z,6.35
2023-05-24T16:34:56.080Z,5.88
2023-05-24T16:37:24.431Z,5.35
2023-05-24T16:39:51.964Z,6.15
2023-05-24T16:42:19.482Z,5.68
2023-05-24T16:44:47.142Z,6.05
2023-05-24T16:47:14.791Z,6.07
2023-05-24T16:49:42.367Z,6.32
2023-05-24T16:52:09.897Z,6.65
2023-05-24T16:54:37.379Z,7.25
2023-05-24T16:57:04.952Z,7.82
2023-05-24T16:59:33.239Z,6.43
2023-05-24T17:02:00.888Z,7.43
2023-05-24T17:04:28.493Z,7.05
2023-05-24T17:06:56.061Z,6.93
2023-05-24T17:09:23.627Z,7.60
2023-05-24T17:11:51.370Z,7.43
2023-05-24T17:14:18.960Z,7.43
2023-05-24T17:16:46.630Z,7.68
2023-05-24T17:19:14.320Z,7.43
2023-05-24T17:21:42.089Z,7.13
2023-05-24T17:24:09.699Z,7.40
2023-05-24T17:26:39.133Z,7.70
2023-05-24T17:29:06.608Z,8.25
2023-05-24T17:31:34.338Z,7.80
2023-05-24T17:34:02.118Z,8.43
2023-05-24T17:36:33.453Z,7.82
2023-05-24T17:39:00.933Z,8.33
2023-05-24T17:41:28.353Z,8.77
2023-05-24T17:43:56.003Z,8.40
2023-05-24T17:46:23.515Z,8.35
2023-05-24T17:48:52.008Z,7.93
2023-05-24T17:51:19.776Z,8.57
2023-05-24T17:53:47.985Z,8.80
2023-05-24T17:56:15.674Z,8.60
2023-05-24T17:58:43.644Z,9.88
2023-05-24T18:01:12.754Z,9.68
2023-05-24T18:03:41.105Z,8.50
2023-05-24T18:06:09.804Z,7.10
2023-05-24T18:08:40.955Z,7.00
2023-05-24T18:11:09.658Z,5.90
2023-05-24T18:13:37.874Z,6.20
2023-05-24T18:16:06.692Z,5.90
2023-05-24T18:18:34.618Z,6.47
2023-05-24T18:21:02.092Z,6.25
2023-05-24T18:23:30.302Z,6.10
2023-05-24T18:26:01.224Z,5.85
2023-05-24T18:28:30.800Z,6.75
2023-05-24T18:30:58.249Z,5.80
2023-05-24T18:33:25.968Z,6.22
2023-05-24T18:35:53.567Z,6.00
2023-05-24T18:38:21.502Z,5.90
2023-05-24T18:40:49.010Z,6.38
2023-05-24T18:43:16.542Z,5.45
2023-05-24T18:45:44.307Z,5.40
2023-05-24T18:48:11.953Z,5.55
2023-05-24T18:50:39.547Z,5.60
2023-05-24T18:53:07.065Z,6.15
2023-05-24T18:55:34.590Z,5.47
2023-05-24T18:58:02.106Z,5.90
2023-05-24T19:00:29.643Z,5.68
2023-05-24T19:02:57.187Z,6.05
2023-05-24T19:05:24.697Z,5.43
2023-05-24T19:07:52.419Z,4.93
2023-05-24T19:10:20.052Z,5.13
2023-05-24T19:12:47.701Z,5.32
2023-05-24T19:15:15.309Z,5.32
2023-05-24T19:17:42.805Z,5.10
2023-05-24T19:20:10.997Z,5.00
2023-05-24T19:22:38.484Z,5.10
2023-05-24T19:25:06.362Z,5.28
2023-05-24T19:27:36.234Z,5.30
2023-05-24T19:30:06.055Z,4.50
2023-05-24T19:32:35.731Z,5.47
2023-05-24T19:35:03.379Z,5.15
2023-05-24T19:37:30.853Z,5.20
2023-05-24T19:39:58.431Z,4.82
2023-05-24T19:42:25.909Z,5.15
2023-05-24T19:44:53.402Z,5.72
2023-05-24T19:47:20.994Z,5.57
2023-05-24T19:49:48.587Z,5.43
2023-05-24T19:52:18.583Z,5.47
2023-05-24T19:54:46.153Z,5.60
2023-05-24T19:57:13.632Z,6.10
2023-05-24T19:59:41.259Z,6.10
2023-05-24T20:02:08.853Z,6.50
2023-05-24T20:10:30.252Z,6.38
2023-05-24T20:12:58.450Z,6.65
2023-05-24T20:15:29.007Z,8.00
2023-05-24T20:17:56.732Z,7.28
2023-05-24T20:20:24.357Z,6.90
2023-05-24T20:22:52.374Z,7.57
2023-05-24T20:25:20.996Z,6.65
2023-05-24T20:27:48.495Z,7.38
2023-05-24T20:30:17.779Z,6.93
2023-05-24T20:32:46.139Z,6.78
2023-05-24T20:35:13.659Z,7.15
2023-05-24T20:37:42.024Z,7.18
2023-05-24T20:40:09.700Z,6.90
2023-05-24T20:42:37.461Z,7.10
2023-05-24T20:45:05.380Z,7.40
2023-05-24T20:47:32.835Z,6.32
2023-05-24T20:50:00.551Z,6.88
2023-05-24T20:52:28.016Z,7.63
2023-05-24T20:54:55.622Z,7.30
2023-05-24T20:57:23.175Z,6.90
2023-05-24T20:59:50.829Z,7.07
2023-05-24T21:02:18.399Z,7.30
2023-05-24T21:04:46.217Z,6.75
2023-05-24T21:07:13.653Z,7.68
2023-05-24T21:09:41.176Z,8.68
2023-05-24T21:12:08.749Z,7.38
2023-05-24T21:14:36.221Z,8.05
2023-05-24T21:17:03.887Z,7.93
2023-05-24T21:19:31.623Z,7.53
2023-05-24T21:21:59.168Z,7.70
2023-05-24T21:24:26.605Z,8.00
2023-05-24T21:26:54.114Z,8.80
2023-05-24T21:29:21.575Z,9.05
2023-05-24T21:31:49.057Z,8.88
2023-05-24T21:34:16.494Z,9.52
2023-05-24T21:36:43.957Z,8.77
2023-05-24T21:39:11.403Z,9.57
2023-05-24T21:41:38.942Z,9.70
2023-05-24T21:44:08.214Z,10.73
2023-05-24T21:46:36.439Z,12.15
2023-05-24T21:49:04.141Z,11.82
2023-05-24T21:51:31.677Z,12.07
2023-05-24T21:53:59.203Z,12.20
2023-05-24T21:56:27.116Z,12.93
2023-05-24T21:58:54.814Z,12.82
2023-05-24T22:01:22.464Z,12.73
2023-05-24T22:03:50.048Z,12.27
2023-05-24T22:06:17.646Z,12.07
2023-05-24T22:08:45.079Z,11.85
2023-05-24T22:11:13.035Z,11.25
2023-05-24T22:13:40.506Z,11.25
2023-05-24T22:16:09.206Z,11.43
2023-05-24T22:18:36.806Z,11.48
2023-05-24T22:21:04.496Z,11.55
2023-05-24T22:23:33.401Z,11.48
2023-05-24T22:26:00.987Z,11.43
2023-05-24T22:28:28.990Z,11.52
2023-05-24T22:30:57.412Z,10.43
2023-05-24T22:33:24.899Z,10.65
2023-05-24T22:35:52.397Z,10.43
2023-05-24T22:38:19.889Z,12.20
2023-05-24T22:40:47.342Z,10.10
2023-05-24T22:43:14.829Z,11.07
2023-05-24T22:45:42.659Z,10.27
2023-05-24T22:48:10.508Z,10.02
2023-05-24T22:50:38.368Z,10.88
2023-05-24T22:53:05.907Z,10.25
2023-05-24T22:55:33.349Z,9.02
2023-05-24T22:58:01.901Z,9.85
2023-05-24T23:00:29.431Z,8.85
2023-05-24T23:02:56.990Z,9.02
2023-05-24T23:05:24.503Z,8.57
2023-05-24T23:07:52.659Z,8.05
2023-05-24T23:10:20.182Z,9.27
2023-05-24T23:12:47.660Z,7.40
2023-05-24T23:15:16.841Z,6.72
2023-05-24T23:17:44.657Z,7.15
2023-05-24T23:20:14.479Z,7.13
2023-05-24T23:22:42.014Z,7.45
2023-05-24T23:25:10.108Z,6.88
2023-05-24T23:27:37.682Z,6.97
2023-05-24T23:30:05.956Z,6.90
2023-05-24T23:32:33.716Z,7.43
2023-05-24T23:35:01.209Z,7.75
2023-05-24T23:37:28.714Z,8.75
2023-05-24T23:39:56.685Z,8.55
2023-05-24T23:42:24.099Z,7.30
2023-05-24T23:44:51.545Z,7.53
2023-05-24T23:47:19.062Z,6.88
2023-05-24T23:49:46.557Z,7.22
2023-05-24T23:52:15.273Z,6.28
2023-05-24T23:54:42.709Z,6.90
2023-05-24T23:57:10.182Z,7.10
2023-05-24T23:59:37.628Z,7.07
